Terminal Aerodrome Forecast
Issued by NWS Twin Cities, MN

Home | Current Version | Previous Version | Text Only | Print | Product List | Glossary Off
Versions: 1 2 3 4 5 6 7 8 9 10 11 12 13 14 15 16 17

000
FTUS43 KMPX 201400 AAA
TAFSTC
TAF AMD
KSTC 201456Z 2015/2112 30010KT P6SM FEW040
     FM210200 26004KT P6SM SKC
     FM210600 17005KT P6SM SCT200=

USA.gov is the U.S. government's official web portal to all federal, state and local government web resources and services.